Time;durP1;ratioP1;P1;durP2;ratioP2;P2;SDS_P1;SDS_P2;PMS_P1;PMS_P2;Temp;Humidity;BMP_temperature;BMP_pressure;BME280_temperature;BME280_humidity;BME280_pressure;Samples;Min_cycle;Max_cycle;Signal;HPM_P1;HPM_P2
2023/06/11 00:00:33;;;;;;;9.77;6.70;;;;;;;24.42;40.41;101628.75;5059968;28;20037;-79
2023/06/11 00:03:01;;;;;;;8.65;6.05;;;;;;;24.40;40.18;101627.91;5053928;28;20551;-80
2023/06/11 00:05:30;;;;;;;9.80;6.25;;;;;;;24.43;40.40;101630.50;5040352;28;20041;-80
2023/06/11 00:08:00;;;;;;;8.77;6.20;;;;;;;24.42;40.63;101627.88;5064247;28;20073;-79
2023/06/11 00:10:25;;;;;;;10.55;6.20;;;;;;;24.40;40.61;101619.94;5063067;28;20045;-79
2023/06/11 00:12:51;;;;;;;9.35;6.30;;;;;;;24.41;40.01;101623.47;5044211;28;20087;-79
2023/06/11 00:15:16;;;;;;;9.13;6.13;;;;;;;24.44;40.29;101621.59;5044899;28;20037;-79
2023/06/11 00:17:41;;;;;;;8.48;6.30;;;;;;;24.44;40.11;101623.38;5040819;28;20044;-79
2023/06/11 00:20:11;;;;;;;12.77;6.82;;;;;;;24.32;40.05;101621.09;5059287;28;20037;-81
2023/06/11 00:22:40;;;;;;;8.15;6.25;;;;;;;24.41;40.05;101613.69;5037329;28;20440;-78
2023/06/11 00:25:10;;;;;;;9.15;6.20;;;;;;;24.41;39.94;101619.00;5057241;28;20041;-81
2023/06/11 00:27:36;;;;;;;9.52;6.68;;;;;;;24.34;39.87;101614.78;5039656;28;20048;-80
2023/06/11 00:30:07;;;;;;;7.57;5.85;;;;;;;24.42;39.94;101617.22;5056585;28;20486;-80
2023/06/11 00:32:36;;;;;;;11.23;6.30;;;;;;;24.45;39.40;101612.69;5041438;28;20041;-80
2023/06/11 00:35:07;;;;;;;10.30;6.25;;;;;;;24.39;39.75;101614.66;5059484;28;20581;-80
2023/06/11 00:37:35;;;;;;;10.73;6.63;;;;;;;24.37;39.53;101614.72;5055123;28;20399;-79
2023/06/11 00:40:01;;;;;;;11.95;6.63;;;;;;;24.35;39.26;101613.88;5059701;28;20063;-79
2023/06/11 00:42:40;;;;;;;9.43;6.80;;;;;;;24.51;39.09;101609.81;5060374;28;20052;-81
2023/06/11 00:45:07;;;;;;;9.30;6.57;;;;;;;24.48;39.22;101615.22;5067710;28;20037;-80
2023/06/11 00:47:32;;;;;;;9.38;6.55;;;;;;;24.48;39.11;101606.34;5053003;28;20028;-80
2023/06/11 00:50:03;;;;;;;9.93;6.53;;;;;;;24.51;38.99;101609.81;5051706;28;20072;-79
2023/06/11 00:52:29;;;;;;;11.10;6.57;;;;;;;24.46;39.23;101606.41;5069803;28;20064;-78
2023/06/11 00:54:54;;;;;;;10.52;6.97;;;;;;;24.35;39.12;101607.66;5059246;28;20041;-79
2023/06/11 00:57:29;;;;;;;9.98;6.93;;;;;;;24.43;38.98;101609.19;5050374;28;20454;-79
2023/06/11 01:00:13;;;;;;;8.93;6.50;;;;;;;24.45;39.40;101609.13;5069612;28;21022;-79
2023/06/11 01:02:47;;;;;;;11.23;6.72;;;;;;;24.38;39.03;101604.91;5069409;28;20116;-79
2023/06/11 01:05:17;;;;;;;10.82;6.88;;;;;;;24.39;39.22;101601.34;5067804;28;20041;-79
2023/06/11 01:07:50;;;;;;;10.25;6.55;;;;;;;24.43;39.15;101598.53;5068502;28;20041;-80
2023/06/11 01:10:21;;;;;;;10.13;6.50;;;;;;;24.36;39.37;101601.44;5072792;28;20032;-81
2023/06/11 01:12:48;;;;;;;8.48;6.80;;;;;;;24.38;39.34;101597.81;5041441;28;20057;-80
2023/06/11 01:15:14;;;;;;;11.43;6.78;;;;;;;24.38;39.66;101591.59;5060505;28;20029;-81
2023/06/11 01:17:54;;;;;;;10.32;6.80;;;;;;;24.35;39.92;101597.88;5056331;28;20037;-79
2023/06/11 01:20:49;;;;;;;11.07;7.07;;;;;;;24.17;40.16;101593.09;5047090;28;20037;-79
2023/06/11 01:23:23;;;;;;;10.38;6.95;;;;;;;24.21;40.06;101593.00;5030699;28;20025;-80
2023/06/11 01:26:07;;;;;;;9.70;6.78;;;;;;;24.21;39.97;101589.47;5047490;28;20045;-80
2023/06/11 01:28:37;;;;;;;11.18;6.88;;;;;;;24.14;40.68;101590.56;5066272;28;20044;-81
2023/06/11 01:31:15;;;;;;;12.82;7.10;;;;;;;24.12;40.44;101589.72;5057433;28;20048;-80
2023/06/11 01:33:44;;;;;;;11.13;6.95;;;;;;;24.09;40.72;101585.34;5058409;28;20063;-79
2023/06/11 01:36:14;;;;;;;9.35;7.13;;;;;;;24.06;40.82;101589.91;5057936;28;20029;-80
2023/06/11 01:38:44;;;;;;;10.07;7.00;;;;;;;24.05;40.63;101589.03;5059059;28;20541;-80
2023/06/11 01:41:14;;;;;;;14.18;7.07;;;;;;;24.03;40.71;101587.34;5059828;28;20367;-80
2023/06/11 01:43:40;;;;;;;9.50;6.60;;;;;;;24.01;40.95;101587.41;5061536;28;20086;-80
2023/06/11 01:46:11;;;;;;;9.38;6.70;;;;;;;23.96;41.01;101584.00;5062170;28;20029;-80
2023/06/11 01:48:39;;;;;;;9.30;7.10;;;;;;;23.88;41.57;101588.69;5061687;28;20040;-80
2023/06/11 01:51:06;;;;;;;11.30;7.10;;;;;;;23.89;41.95;101582.44;5047822;28;20040;-80
2023/06/11 01:53:32;;;;;;;13.90;7.82;;;;;;;23.79;42.16;101580.97;5066688;28;20029;-79
2023/06/11 01:55:58;;;;;;;11.10;7.75;;;;;;;23.79;42.55;101580.97;5068399;28;20431;-79
2023/06/11 01:58:23;;;;;;;9.95;7.10;;;;;;;23.78;42.36;101587.22;5060558;28;20443;-78
2023/06/11 02:00:49;;;;;;;12.55;7.47;;;;;;;23.73;42.43;101582.03;5050311;28;20016;-80
2023/06/11 02:03:15;;;;;;;15.00;7.50;;;;;;;23.77;42.26;101590.81;5073872;28;20035;-80
2023/06/11 02:05:43;;;;;;;10.18;7.28;;;;;;;23.75;42.46;101582.84;5074230;28;20048;-79
2023/06/11 02:08:10;;;;;;;9.40;7.50;;;;;;;23.69;42.68;101587.50;5051971;28;20033;-79
2023/06/11 02:10:38;;;;;;;11.68;7.90;;;;;;;23.69;42.75;101588.38;5071314;28;20044;-79
2023/06/11 02:13:06;;;;;;;15.75;8.60;;;;;;;23.66;42.83;101596.47;5075298;28;20037;-80
2023/06/11 02:15:32;;;;;;;13.10;7.75;;;;;;;23.66;42.98;101593.78;5072153;28;20033;-78
2023/06/11 02:17:57;;;;;;;10.43;7.60;;;;;;;23.65;43.11;101583.19;5073432;28;20490;-80
2023/06/11 02:20:22;;;;;;;10.25;8.02;;;;;;;23.61;43.66;101590.38;5074940;28;20075;-79
2023/06/11 02:22:48;;;;;;;9.50;7.57;;;;;;;23.56;43.93;101589.63;5070622;28;20032;-77
2023/06/11 02:25:13;;;;;;;10.50;7.60;;;;;;;23.52;43.52;101592.44;5074984;28;20092;-78
2023/06/11 02:27:44;;;;;;;11.95;7.70;;;;;;;23.46;43.72;101590.78;5068566;28;20124;-79
2023/06/11 02:30:16;;;;;;;12.95;7.68;;;;;;;23.43;44.24;101594.41;5064317;28;20040;-78
2023/06/11 02:32:41;;;;;;;10.85;8.10;;;;;;;23.39;44.14;101591.88;5073428;28;20041;-79
2023/06/11 02:35:13;;;;;;;11.68;8.20;;;;;;;23.39;44.08;101591.88;5051271;28;20082;-77
2023/06/11 02:37:41;;;;;;;12.00;8.48;;;;;;;23.32;44.47;101592.97;5055298;28;20050;-79
2023/06/11 02:40:10;;;;;;;11.73;8.68;;;;;;;23.36;44.36;101592.81;5073439;28;20037;-80
2023/06/11 02:42:38;;;;;;;12.15;8.90;;;;;;;23.38;44.61;101596.31;5065498;28;20025;-78
2023/06/11 02:45:10;;;;;;;13.77;9.20;;;;;;;23.32;44.69;101587.63;5050660;28;20033;-79
2023/06/11 02:47:35;;;;;;;14.68;8.85;;;;;;;23.42;44.38;101590.00;5068296;28;20105;-78
2023/06/11 02:50:00;;;;;;;12.18;9.40;;;;;;;23.45;44.51;101594.38;5066564;28;20044;-79
2023/06/11 02:52:26;;;;;;;11.18;8.50;;;;;;;23.44;44.34;101590.81;5068007;28;20103;-80
2023/06/11 02:54:54;;;;;;;13.50;9.80;;;;;;;23.34;44.39;101597.34;5065466;28;20032;-79
2023/06/11 02:57:25;;;;;;;13.35;9.55;;;;;;;23.41;44.36;101592.72;5065247;28;20063;-78
2023/06/11 02:59:51;;;;;;;13.95;9.10;;;;;;;23.44;44.37;101596.16;5047070;28;20036;-79
2023/06/11 03:02:19;;;;;;;13.25;9.52;;;;;;;23.37;44.38;101589.25;5066667;28;20044;-78
2023/06/11 03:04:44;;;;;;;12.38;8.68;;;;;;;23.50;44.24;101597.78;5061036;28;20044;-79
2023/06/11 03:07:10;;;;;;;15.80;9.52;;;;;;;23.52;44.17;101589.78;5065222;28;20040;-78
2023/06/11 03:09:38;;;;;;;16.33;9.70;;;;;;;23.53;44.34;101586.19;5066980;28;20044;-77
2023/06/11 03:12:08;;;;;;;14.65;10.13;;;;;;;23.44;44.57;101593.50;5048358;28;20040;-78
2023/06/11 03:14:39;;;;;;;14.10;9.32;;;;;;;23.51;44.24;101594.22;5061136;28;20059;-78
2023/06/11 03:17:05;;;;;;;12.55;9.18;;;;;;;23.49;44.46;101588.06;5064057;28;20033;-79
2023/06/11 03:19:30;;;;;;;12.32;9.35;;;;;;;23.44;44.94;101596.16;5062792;28;20029;-80
2023/06/11 03:21:58;;;;;;;12.48;9.27;;;;;;;23.42;44.98;101595.31;5064098;28;20049;-78
2023/06/11 03:24:27;;;;;;;14.00;9.93;;;;;;;23.39;45.32;101591.88;5065549;28;20111;-80
2023/06/11 03:26:52;;;;;;;13.02;10.27;;;;;;;23.40;45.23;101590.97;5069722;28;20097;-79
2023/06/11 03:29:17;;;;;;;12.70;9.80;;;;;;;23.45;44.96;101586.38;5064252;28;20029;-79
2023/06/11 03:31:43;;;;;;;13.07;9.50;;;;;;;23.45;45.29;101583.72;5064171;28;20174;-78
2023/06/11 03:34:09;;;;;;;13.32;9.73;;;;;;;23.38;45.41;101579.47;5066300;28;20082;-78
2023/06/11 03:36:36;;;;;;;15.15;10.60;;;;;;;23.42;45.66;101591.81;5061303;28;20051;-79
2023/06/11 03:39:02;;;;;;;13.75;10.15;;;;;;;23.45;45.27;101592.56;5061954;28;20029;-79
2023/06/11 03:41:36;;;;;;;14.20;9.70;;;;;;;23.39;46.06;101590.09;5072854;28;20021;-78
2023/06/11 03:44:02;;;;;;;13.45;10.27;;;;;;;23.29;46.52;101593.06;5067920;28;20147;-77
2023/06/11 03:46:30;;;;;;;14.52;10.43;;;;;;;23.41;46.11;101592.72;5071311;28;20163;-79
2023/06/11 03:48:56;;;;;;;14.23;9.77;;;;;;;23.45;46.08;101597.91;5072982;28;20060;-80
2023/06/11 03:51:28;;;;;;;13.20;10.52;;;;;;;23.41;46.41;101588.28;5073268;28;20039;-80
2023/06/11 03:53:59;;;;;;;14.23;10.05;;;;;;;23.42;46.21;101597.97;5072520;28;20091;-78
2023/06/11 03:56:37;;;;;;;13.48;10.50;;;;;;;23.42;46.18;101597.13;5055517;28;20080;-79
2023/06/11 03:59:14;;;;;;;15.15;10.18;;;;;;;23.43;46.58;101593.53;5074435;28;20025;-80
2023/06/11 04:01:40;;;;;;;13.43;10.13;;;;;;;23.47;46.57;101597.03;5073772;28;20033;-80
2023/06/11 04:04:12;;;;;;;14.82;10.32;;;;;;;23.47;46.75;101597.91;5073684;28;20032;-78
2023/06/11 04:06:38;;;;;;;16.38;10.77;;;;;;;23.56;46.95;101602.94;5071793;28;20044;-80
2023/06/11 04:09:07;;;;;;;15.40;11.15;;;;;;;23.61;46.43;101598.34;5066549;28;20040;-79
2023/06/11 04:11:35;;;;;;;14.32;11.07;;;;;;;23.67;46.59;101608.81;5066743;28;20047;-79
2023/06/11 04:14:00;;;;;;;15.07;10.43;;;;;;;23.74;46.52;101597.09;5064097;28;20037;-78
2023/06/11 04:16:26;;;;;;;14.60;10.65;;;;;;;23.71;46.35;101610.50;5073639;28;20032;-78
2023/06/11 04:18:57;;;;;;;15.65;11.68;;;;;;;23.68;46.75;101605.25;5066446;28;20040;-79
2023/06/11 04:21:22;;;;;;;16.88;11.18;;;;;;;23.82;46.88;101608.38;5073808;28;20355;-80
2023/06/11 04:23:51;;;;;;;13.73;10.50;;;;;;;23.71;47.81;101607.84;5061731;28;20126;-80
2023/06/11 04:26:19;;;;;;;14.05;11.43;;;;;;;23.74;47.67;101617.50;5061193;28;20025;-80
2023/06/11 04:28:51;;;;;;;15.13;11.25;;;;;;;23.63;48.33;101619.63;5062532;28;20056;-79
2023/06/11 04:31:16;;;;;;;15.63;11.40;;;;;;;23.77;47.12;101612.09;5060852;28;20064;-79
2023/06/11 04:33:42;;;;;;;14.85;11.35;;;;;;;23.89;47.17;101602.88;5046536;28;20044;-79
2023/06/11 04:36:08;;;;;;;15.98;12.35;;;;;;;24.07;46.53;101604.97;5052466;28;20036;-78
2023/06/11 04:38:44;;;;;;;17.73;12.13;;;;;;;23.99;47.45;101612.31;5049399;28;20037;-78
2023/06/11 04:41:13;;;;;;;16.38;12.02;;;;;;;24.22;47.00;101613.38;5054311;28;20032;-79
2023/06/11 04:43:41;;;;;;;16.23;12.18;;;;;;;24.33;46.50;101615.75;5058026;28;20025;-80
2023/06/11 04:46:13;;;;;;;17.50;12.07;;;;;;;24.30;46.42;101615.81;5070350;28;20048;-80
2023/06/11 04:48:50;;;;;;;18.00;12.20;;;;;;;24.42;46.55;101628.75;5050038;28;20033;-78
2023/06/11 04:51:20;;;;;;;14.85;11.65;;;;;;;24.62;46.08;101629.00;5072393;28;20048;-80
2023/06/11 04:53:46;;;;;;;15.25;11.68;;;;;;;24.86;45.95;101623.75;5072745;28;20033;-79
2023/06/11 04:56:11;;;;;;;14.45;11.77;;;;;;;24.88;45.84;101624.59;5077128;28;20046;-79
2023/06/11 04:58:37;;;;;;;14.88;11.43;;;;;;;25.04;45.82;101625.81;5066660;28;20033;-80
2023/06/11 05:01:07;;;;;;;18.00;12.63;;;;;;;25.04;45.69;101625.81;5076492;28;20037;-79
2023/06/11 05:03:37;;;;;;;15.52;11.73;;;;;;;25.10;45.64;101622.94;5077653;28;20049;-79
2023/06/11 05:06:04;;;;;;;14.38;11.57;;;;;;;25.23;45.45;101628.72;5073564;28;20032;-79
2023/06/11 05:08:35;;;;;;;16.17;12.60;;;;;;;25.30;45.51;101631.13;5070263;28;20025;-79
2023/06/11 05:11:10;;;;;;;17.50;11.73;;;;;;;25.55;45.84;101623.09;5070024;28;20132;-79
2023/06/11 05:13:37;;;;;;;15.55;11.77;;;;;;;26.03;45.32;101624.88;5067141;28;20094;-78
2023/06/11 05:16:08;;;;;;;17.55;11.98;;;;;;;26.94;42.39;101631.91;5073066;28;20235;-78
2023/06/11 05:18:36;;;;;;;16.48;11.05;;;;;;;28.70;38.43;101623.72;5060624;28;20036;-78
2023/06/11 05:21:02;;;;;;;13.65;11.25;;;;;;;29.77;36.29;101621.69;5071465;28;20077;-79
2023/06/11 05:23:29;;;;;;;13.20;10.00;;;;;;;30.81;34.52;101620.22;5074737;28;20106;-80
2023/06/11 05:26:01;;;;;;;13.02;9.65;;;;;;;31.38;32.56;101617.69;5063799;28;20133;-79
2023/06/11 05:28:27;;;;;;;13.55;11.00;;;;;;;31.05;33.90;101628.69;5057653;28;20044;-79
2023/06/11 05:30:53;;;;;;;14.32;11.00;;;;;;;32.54;30.98;101613.81;5068596;28;20041;-79
2023/06/11 05:33:18;;;;;;;14.38;10.38;;;;;;;33.37;29.29;101618.03;5054828;28;20037;-79
2023/06/11 05:35:44;;;;;;;14.45;9.82;;;;;;;34.01;28.84;101617.03;5047078;28;20036;-78
2023/06/11 05:38:23;;;;;;;11.93;9.85;;;;;;;33.98;28.74;101624.47;5068519;28;20033;-78
2023/06/11 05:40:49;;;;;;;17.30;10.30;;;;;;;34.44;28.29;101633.69;5068783;28;20129;-79
2023/06/11 05:43:14;;;;;;;14.43;9.80;;;;;;;34.58;26.98;101628.06;5068138;28;20060;-78
2023/06/11 05:45:48;;;;;;;11.13;9.20;;;;;;;34.81;27.04;101626.38;5068550;28;20037;-77
2023/06/11 05:48:13;;;;;;;13.30;9.70;;;;;;;34.40;27.65;101634.03;5070945;28;20041;-78
2023/06/11 05:50:42;;;;;;;12.93;9.93;;;;;;;33.86;28.79;101620.84;5048385;28;20074;-78
2023/06/11 05:53:10;;;;;;;12.30;9.63;;;;;;;33.84;29.14;101611.13;5046783;28;20036;-80
2023/06/11 05:55:38;;;;;;;11.05;8.10;;;;;;;35.04;27.72;101621.91;5068295;28;20064;-79
2023/06/11 05:58:05;;;;;;;11.20;9.00;;;;;;;36.02;25.33;101617.72;5057161;28;20044;-79
2023/06/11 06:00:30;;;;;;;12.20;8.07;;;;;;;36.19;25.38;101622.63;5062301;28;20044;-79
2023/06/11 06:02:55;;;;;;;13.40;9.07;;;;;;;35.99;24.93;101617.94;5057967;28;20041;-79
2023/06/11 06:05:22;;;;;;;11.13;8.20;;;;;;;36.34;25.53;101628.66;5058312;28;20029;-79
2023/06/11 06:07:47;;;;;;;11.40;8.98;;;;;;;35.25;27.25;101627.53;5059367;28;20044;-79
2023/06/11 06:10:19;;;;;;;10.25;8.13;;;;;;;36.40;25.51;101626.31;5060040;28;20033;-79
2023/06/11 06:12:44;;;;;;;10.00;8.60;;;;;;;36.50;25.27;101629.09;5064264;28;20059;-81
2023/06/11 06:15:13;;;;;;;11.18;8.35;;;;;;;36.46;24.84;101627.63;5068010;28;20024;-79
2023/06/11 06:17:38;;;;;;;11.82;8.57;;;;;;;36.77;24.16;101629.53;5057421;28;20044;-80
2023/06/11 06:20:10;;;;;;;13.57;9.05;;;;;;;35.79;25.98;101627.72;5058180;28;20033;-80
2023/06/11 06:22:41;;;;;;;10.75;7.78;;;;;;;36.56;25.19;101632.16;5057163;28;20090;-79
2023/06/11 06:25:09;;;;;;;10.88;9.15;;;;;;;37.25;23.44;101627.19;5067415;28;20036;-79
2023/06/11 06:27:35;;;;;;;10.77;8.48;;;;;;;36.99;23.63;101633.97;5059462;28;20071;-81
2023/06/11 06:30:01;;;;;;;13.32;9.27;;;;;;;36.54;23.86;101633.28;5064059;28;20124;-79
2023/06/11 06:32:28;;;;;;;11.75;8.48;;;;;;;36.66;24.06;101631.44;5036110;28;20041;-79
2023/06/11 06:34:53;;;;;;;11.52;8.75;;;;;;;36.50;24.46;101629.97;5061368;28;20043;-79
2023/06/11 06:37:18;;;;;;;12.63;8.73;;;;;;;36.39;24.34;101630.00;5036862;28;20120;-79
2023/06/11 06:39:43;;;;;;;13.82;9.07;;;;;;;36.39;24.38;101623.72;5061212;28;20052;-79
2023/06/11 06:42:10;;;;;;;13.75;8.75;;;;;;;36.79;24.01;101623.94;5037550;28;20098;-79
2023/06/11 06:44:41;;;;;;;10.88;8.40;;;;;;;35.52;26.13;101630.75;5034358;28;20033;-79
2023/06/11 06:47:06;;;;;;;11.00;8.63;;;;;;;36.31;25.18;101626.19;5056782;28;20033;-79
2023/06/11 06:49:32;;;;;;;11.45;8.40;;;;;;;37.12;24.34;101636.53;5063112;28;20033;-79
2023/06/11 06:51:58;;;;;;;11.15;8.20;;;;;;;37.49;23.14;101634.19;5057960;28;20044;-80
2023/06/11 06:54:29;;;;;;;12.07;8.73;;;;;;;37.19;23.53;101626.84;5060874;28;20032;-80
2023/06/11 06:56:55;;;;;;;11.10;7.85;;;;;;;37.09;23.88;101624.03;5065313;28;20861;-80
2023/06/11 06:59:20;;;;;;;9.43;8.40;;;;;;;37.09;24.30;101636.75;5064614;28;20055;-80
2023/06/11 07:01:45;;;;;;;10.85;8.65;;;;;;;36.95;24.33;101630.66;5064194;28;20044;-80
2023/06/11 07:04:23;;;;;;;10.90;8.40;;;;;;;37.15;23.57;101630.81;5042384;28;20036;-78
2023/06/11 07:06:51;;;;;;;12.68;8.25;;;;;;;36.89;24.49;101633.91;5048546;28;20371;-79
2023/06/11 07:09:16;;;;;;;9.55;7.68;;;;;;;37.09;24.67;101643.06;5055224;28;20025;-79
2023/06/11 07:11:42;;;;;;;11.80;9.00;;;;;;;36.74;24.44;101642.50;5052360;28;20041;-79
2023/06/11 07:14:11;;;;;;;12.40;8.35;;;;;;;37.51;24.03;101640.38;5054325;28;20056;-79
2023/06/11 07:16:39;;;;;;;13.27;8.73;;;;;;;37.33;23.96;101632.78;5058531;28;20106;-79
2023/06/11 07:19:08;;;;;;;12.60;8.32;;;;;;;37.52;23.17;101644.78;5052795;28;20029;-81
2023/06/11 07:21:35;;;;;;;10.35;8.02;;;;;;;37.37;23.46;101636.13;5055797;28;20037;-78
2023/06/11 07:24:05;;;;;;;11.60;8.73;;;;;;;37.17;24.42;101637.84;5052107;28;20163;-79
2023/06/11 07:26:37;;;;;;;11.40;8.93;;;;;;;36.45;25.11;101637.63;5051849;28;20128;-80
2023/06/11 07:29:08;;;;;;;10.32;7.97;;;;;;;36.81;25.55;101650.00;5053886;28;20039;-80
2023/06/11 07:31:33;;;;;;;11.80;8.38;;;;;;;37.31;24.38;101645.69;5053789;28;20052;-80
2023/06/11 07:34:06;;;;;;;10.70;7.47;;;;;;;38.08;23.22;101634.34;5053256;28;20030;-79
2023/06/11 07:36:31;;;;;;;12.48;7.90;;;;;;;38.14;23.15;101629.19;5052491;28;20398;-79
2023/06/11 07:39:00;;;;;;;11.50;8.27;;;;;;;38.23;22.70;101635.69;5051623;28;20037;-80
2023/06/11 07:41:25;;;;;;;11.25;7.60;;;;;;;38.94;22.30;101636.34;5051585;28;20039;-79
2023/06/11 07:43:50;;;;;;;11.40;7.38;;;;;;;38.34;22.68;101634.69;5049103;28;20397;-79
2023/06/11 07:46:22;;;;;;;9.13;7.22;;;;;;;38.97;22.22;101640.66;5041649;28;20033;-79
2023/06/11 07:48:51;;;;;;;9.35;8.32;;;;;;;38.24;23.16;101634.69;5054971;28;20485;-80
2023/06/11 07:51:20;;;;;;;12.45;7.55;;;;;;;38.92;22.88;101635.63;5058008;28;20048;-79
2023/06/11 07:53:46;;;;;;;11.73;7.40;;;;;;;39.47;22.72;101633.09;5059619;28;20028;-78
2023/06/11 07:56:21;;;;;;;10.13;7.40;;;;;;;39.33;22.02;101634.41;5023160;28;20169;-80
2023/06/11 07:58:46;;;;;;;10.00;7.90;;;;;;;38.25;23.40;101636.38;5038852;28;20064;-81
2023/06/11 08:01:12;;;;;;;10.15;8.00;;;;;;;39.01;22.35;101633.91;5058567;28;20044;-79
2023/06/11 08:03:40;;;;;;;13.35;8.63;;;;;;;38.44;23.04;101632.81;5057637;28;20510;-79
2023/06/11 08:06:11;;;;;;;9.05;7.22;;;;;;;39.41;22.41;101637.28;5058934;28;20040;-80
2023/06/11 08:08:39;;;;;;;9.10;7.82;;;;;;;39.40;21.99;101624.69;5060749;28;20033;-81
2023/06/11 08:11:14;;;;;;;7.70;6.80;;;;;;;39.71;21.77;101631.56;5061280;28;20037;-83
2023/06/11 08:13:40;;;;;;;11.50;7.85;;;;;;;39.21;21.58;101625.56;5061018;28;20029;-81
2023/06/11 08:16:11;;;;;;;9.55;7.88;;;;;;;39.06;22.18;101624.28;5060457;28;20340;-80
2023/06/11 08:18:39;;;;;;;9.23;7.47;;;;;;;38.35;22.93;101623.66;5060557;28;20041;-81
2023/06/11 08:21:05;;;;;;;10.38;8.20;;;;;;;38.67;23.01;101628.84;5060878;28;20060;-80
2023/06/11 08:23:30;;;;;;;11.25;7.68;;;;;;;38.95;22.26;101621.72;5061789;28;20036;-81
2023/06/11 08:25:58;;;;;;;12.70;8.00;;;;;;;39.01;22.82;101621.13;5063497;28;20052;-81
2023/06/11 08:28:27;;;;;;;9.73;8.05;;;;;;;39.49;21.44;101617.44;5070113;28;20036;-81
2023/06/11 08:30:54;;;;;;;9.60;7.40;;;;;;;39.46;22.08;101618.63;5071168;28;20041;-80
2023/06/11 08:33:19;;;;;;;10.73;7.85;;;;;;;39.42;22.21;101613.59;5071896;28;20033;-79
2023/06/11 08:35:44;;;;;;;9.10;7.82;;;;;;;39.17;22.69;101615.91;5071831;28;20402;-80
2023/06/11 08:38:13;;;;;;;9.85;7.47;;;;;;;38.43;23.74;101618.34;5065623;28;20037;-79
2023/06/11 08:40:41;;;;;;;11.02;7.97;;;;;;;37.53;25.11;101616.59;5068734;28;20032;-78
2023/06/11 08:43:15;;;;;;;13.80;8.82;;;;;;;36.16;26.42;101623.78;5072058;28;20036;-81
2023/06/11 08:45:41;;;;;;;10.00;8.32;;;;;;;35.89;28.37;101615.13;5069365;28;20033;-82
2023/06/11 08:48:19;;;;;;;11.20;8.63;;;;;;;35.42;29.17;101618.94;5068486;28;20029;-81
2023/06/11 08:50:47;;;;;;;12.32;9.90;;;;;;;34.94;29.10;101627.19;5067709;28;20041;-79
2023/06/11 08:53:16;;;;;;;11.52;9.82;;;;;;;34.54;29.85;101628.44;5068586;28;20029;-82
2023/06/11 08:55:44;;;;;;;15.52;10.20;;;;;;;33.66;31.10;101619.56;5061746;28;20037;-80
2023/06/11 08:58:11;;;;;;;11.98;9.82;;;;;;;33.54;31.70;101619.56;5062204;28;20029;-82
2023/06/11 09:00:37;;;;;;;11.93;9.75;;;;;;;33.71;31.52;101620.13;5059880;28;20312;-81
2023/06/11 09:03:03;;;;;;;12.18;10.73;;;;;;;33.05;32.16;101625.66;5043946;28;20120;-80
2023/06/11 09:05:30;;;;;;;12.15;9.43;;;;;;;33.60;32.07;101616.44;5063773;28;20100;-83
2023/06/11 09:07:55;;;;;;;14.48;10.80;;;;;;;33.28;31.90;101611.44;5065782;28;20037;-82
2023/06/11 09:10:20;;;;;;;11.98;10.25;;;;;;;33.38;32.27;101609.81;5063386;28;20041;-82
2023/06/11 09:12:46;;;;;;;11.20;10.00;;;;;;;33.82;31.93;101605.81;5063538;28;20504;-79
2023/06/11 09:15:17;;;;;;;12.27;10.10;;;;;;;33.37;32.29;101599.97;5062805;28;20028;-82
2023/06/11 09:17:46;;;;;;;11.93;10.00;;;;;;;33.57;32.78;101608.50;5063436;28;20062;-79
2023/06/11 09:20:18;;;;;;;11.25;9.52;;;;;;;34.06;32.08;101611.28;5044604;22;20036;-49
2023/06/11 09:22:45;;;;;;;12.15;10.18;;;;;;;33.86;32.24;101606.44;5049020;28;20033;-52
2023/06/11 09:25:18;;;;;;;13.48;10.07;;;;;;;33.72;32.46;101615.56;5050536;28;20033;-47
2023/06/11 09:27:45;;;;;;;11.43;10.23;;;;;;;33.17;32.84;101610.44;5050905;28;20033;-50
2023/06/11 09:30:18;;;;;;;14.43;10.18;;;;;;;33.42;32.83;101611.31;5051538;28;20037;-45
2023/06/11 09:32:45;;;;;;;;;;;;;;;33.00;32.79;101609.75;5051523;28;20045;-46
2023/06/11 09:35:11;;;;;;;12.82;10.63;;;;;;;33.17;32.72;101605.91;5051015;28;20379;-48
2023/06/11 09:37:44;;;;;;;14.48;10.90;;;;;;;33.13;32.97;101614.31;5050821;28;20109;-46
2023/06/11 09:40:14;;;;;;;12.48;9.80;;;;;;;33.62;32.71;101611.75;5050410;28;20033;-49
2023/06/11 09:42:43;;;;;;;12.18;10.10;;;;;;;33.23;32.83;101616.31;5051099;28;20539;-48
2023/06/11 09:45:19;;;;;;;16.13;10.25;;;;;;;32.81;33.99;101621.94;5050789;28;20411;-48
2023/06/11 09:47:46;;;;;;;11.80;10.60;;;;;;;32.98;33.03;101624.34;5050668;28;20090;-50
2023/06/11 09:50:16;;;;;;;11.65;10.15;;;;;;;32.75;33.85;101623.22;5052268;28;20440;-50
2023/06/11 09:52:42;;;;;;;12.73;10.50;;;;;;;32.99;32.99;101626.97;5051973;28;20488;-48
2023/06/11 09:55:08;;;;;;;12.10;9.98;;;;;;;33.16;33.60;101624.91;5050810;28;20044;-47
2023/06/11 09:57:35;;;;;;;12.93;10.00;;;;;;;33.34;33.15;101624.53;5050877;28;20037;-48
2023/06/11 10:00:03;;;;;;;13.48;10.20;;;;;;;33.50;32.00;101624.31;5050600;28;20068;-44
2023/06/11 10:02:28;;;;;;;12.27;10.38;;;;;;;32.85;33.04;101624.31;5051007;28;20037;-50
2023/06/11 10:04:54;;;;;;;11.80;10.50;;;;;;;33.28;32.54;101627.66;5049603;28;20037;-47
2023/06/11 10:07:23;;;;;;;13.35;10.02;;;;;;;33.45;32.59;101626.47;5050789;28;20491;-49
2023/06/11 10:09:51;;;;;;;11.23;9.52;;;;;;;33.43;31.57;101623.88;5050007;28;20140;-46
2023/06/11 10:12:20;;;;;;;11.65;10.13;;;;;;;33.39;31.88;101611.56;5050065;28;20036;-48
2023/06/11 10:14:54;;;;;;;11.15;10.05;;;;;;;33.49;32.39;101619.88;5049503;28;20033;-50
2023/06/11 10:17:21;;;;;;;12.30;9.30;;;;;;;33.25;32.32;101625.16;5050458;28;20040;-47
2023/06/11 10:19:51;;;;;;;11.80;9.77;;;;;;;33.53;31.66;101616.00;5049957;28;20091;-45
2023/06/11 10:22:21;;;;;;;11.48;9.20;;;;;;;33.46;31.67;101614.69;5050495;28;20036;-47
2023/06/11 10:24:58;;;;;;;10.10;9.00;;;;;;;33.50;31.12;101616.19;5049177;28;20041;-47
2023/06/11 10:27:34;;;;;;;10.40;8.77;;;;;;;33.46;31.33;101613.81;5050182;28;20509;-49
2023/06/11 10:29:59;;;;;;;13.07;8.68;;;;;;;33.77;31.04;101616.09;5049949;28;20403;-47
2023/06/11 10:32:25;;;;;;;11.18;9.02;;;;;;;33.36;32.11;101602.81;5050506;28;20037;-48
2023/06/11 10:34:56;;;;;;;10.73;8.82;;;;;;;33.74;31.41;101614.47;5049457;28;20029;-49
2023/06/11 10:37:36;;;;;;;9.60;8.63;;;;;;;33.84;30.97;101606.56;5050342;28;20047;-46
2023/06/11 10:40:03;;;;;;;10.57;8.77;;;;;;;33.64;31.35;101610.69;5049844;28;20057;-46
2023/06/11 10:42:36;;;;;;;12.60;9.13;;;;;;;34.02;31.03;101615.19;5050462;28;20082;-50
2023/06/11 10:45:09;;;;;;;11.82;8.80;;;;;;;33.98;30.18;101608.25;5049480;28;20124;-47
2023/06/11 10:47:48;;;;;;;;;;;;;;;34.13;29.77;101608.00;5050523;28;20124;-46
2023/06/11 10:50:16;;;;;;;9.38;8.13;;;;;;;33.81;29.89;101612.19;5050108;28;19999;-49
2023/06/11 10:52:58;;;;;;;9.55;8.48;;;;;;;33.70;30.80;101601.28;5049880;28;20047;-53
2023/06/11 10:55:26;;;;;;;14.38;8.40;;;;;;;33.52;30.71;101610.69;5049893;28;20384;-46
2023/06/11 10:57:52;;;;;;;10.05;8.32;;;;;;;33.73;30.58;101604.63;5049362;28;20041;-46
2023/06/11 11:00:18;;;;;;;13.38;8.02;;;;;;;33.53;30.41;101602.47;5049461;28;20035;-53
2023/06/11 11:02:46;;;;;;;9.68;7.80;;;;;;;34.08;29.84;101602.06;5049147;28;20068;-47
2023/06/11 11:05:12;;;;;;;15.07;8.23;;;;;;;34.06;30.09;101595.91;5049226;28;20514;-48
2023/06/11 11:07:38;;;;;;;9.65;8.60;;;;;;;33.58;30.43;101605.72;5049260;28;20037;-46
2023/06/11 11:10:07;;;;;;;14.75;8.30;;;;;;;33.29;30.32;101599.66;5031518;28;20083;-47
2023/06/11 11:12:44;;;;;;;10.18;8.05;;;;;;;33.67;30.20;101598.75;5049720;28;20033;-45
2023/06/11 11:15:11;;;;;;;12.20;8.30;;;;;;;33.50;30.13;101594.56;5048877;28;20652;-46
2023/06/11 11:17:42;;;;;;;11.02;8.40;;;;;;;33.51;30.79;101595.44;5048897;28;20040;-51
2023/06/11 11:20:13;;;;;;;10.20;7.82;;;;;;;33.60;30.11;101587.53;5049230;28;20068;-50
2023/06/11 11:22:39;;;;;;;10.82;8.15;;;;;;;33.96;30.02;101594.00;5048771;28;20033;-48